createdAt,value
2019-01-12T00:01:06.765Z,22.50
2019-01-12T00:03:37.739Z,21.80
2019-01-12T00:06:08.736Z,22.10
2019-01-12T00:08:39.696Z,21.50
2019-01-12T00:11:10.661Z,21.83
2019-01-12T00:13:41.646Z,21.57
2019-01-12T00:16:12.590Z,20.60
2019-01-12T00:18:43.504Z,19.97
2019-01-12T00:21:14.441Z,19.57
2019-01-12T00:23:45.347Z,20.57
2019-01-12T00:26:16.395Z,19.43
2019-01-12T00:28:47.368Z,21.77
2019-01-12T00:31:18.271Z,21.03
2019-01-12T00:33:49.289Z,20.27
2019-01-12T00:36:20.190Z,20.47
2019-01-12T00:38:51.155Z,21.40
2019-01-12T00:41:22.068Z,21.10
2019-01-12T00:43:52.997Z,19.70
2019-01-12T00:46:24.278Z,20.13
2019-01-12T00:48:55.224Z,19.40
2019-01-12T00:51:26.150Z,19.43
2019-01-12T00:53:57.100Z,20.10
2019-01-12T00:56:28.030Z,20.23
2019-01-12T00:58:59.010Z,20.47
2019-01-12T01:01:29.940Z,19.53
2019-01-12T01:04:00.856Z,19.20
2019-01-12T01:06:32.329Z,18.73
2019-01-12T01:09:04.490Z,19.60
2019-01-12T01:11:36.560Z,19.47
2019-01-12T01:14:07.533Z,19.20
2019-01-12T01:16:38.471Z,19.13
2019-01-12T01:19:09.427Z,18.90
2019-01-12T01:21:40.425Z,19.53
2019-01-12T01:24:11.348Z,18.43
2019-01-12T01:26:42.297Z,19.00
2019-01-12T01:29:13.301Z,18.03
2019-01-12T01:31:44.253Z,19.43
2019-01-12T01:34:15.178Z,17.70
2019-01-12T01:36:46.176Z,17.43
2019-01-12T01:39:17.123Z,16.27
2019-01-12T01:41:48.078Z,16.60
2019-01-12T01:44:18.990Z,15.80
2019-01-12T01:46:49.963Z,15.77
2019-01-12T01:49:20.891Z,16.20
2019-01-12T01:51:51.827Z,15.97
2019-01-12T01:54:22.745Z,16.97
2019-01-12T01:56:53.694Z,17.33
2019-01-12T01:59:24.614Z,17.40
2019-01-12T02:01:55.564Z,17.37
2019-01-12T02:04:26.503Z,17.43
2019-01-12T02:06:57.466Z,16.77
2019-01-12T02:09:28.402Z,16.53
2019-01-12T02:11:59.430Z,15.40
2019-01-12T02:14:30.358Z,15.87
2019-01-12T02:17:01.321Z,15.67
2019-01-12T02:19:32.226Z,15.33
2019-01-12T02:22:03.203Z,15.37
2019-01-12T02:24:34.137Z,15.97
2019-01-12T02:27:05.102Z,15.63
2019-01-12T02:29:36.021Z,16.23
2019-01-12T02:32:07.009Z,16.40
2019-01-12T02:34:37.941Z,15.77
2019-01-12T02:37:09.017Z,14.37
2019-01-12T02:39:39.974Z,13.53
2019-01-12T02:42:11.028Z,13.23
2019-01-12T02:44:41.953Z,13.27
2019-01-12T02:47:12.947Z,12.90
2019-01-12T02:49:43.983Z,13.00
2019-01-12T02:52:14.909Z,11.73
2019-01-12T02:54:45.846Z,14.43
2019-01-12T02:57:16.820Z,14.23
2019-01-12T02:59:47.726Z,14.27
2019-01-12T03:02:18.681Z,14.50
2019-01-12T03:04:49.600Z,14.63
2019-01-12T03:07:20.612Z,14.30
2019-01-12T03:09:51.546Z,15.90
2019-01-12T03:12:22.510Z,14.90
2019-01-12T03:14:53.471Z,16.20
2019-01-12T03:17:26.237Z,16.63
2019-01-12T03:19:57.154Z,15.97
2019-01-12T03:22:28.111Z,16.40
2019-01-12T03:24:59.012Z,15.80
2019-01-12T03:27:29.983Z,15.50
2019-01-12T03:30:00.931Z,15.67
2019-01-12T03:32:31.981Z,15.93
2019-01-12T03:35:02.894Z,17.60
2019-01-12T03:37:33.903Z,16.43
2019-01-12T03:40:05.567Z,14.93
2019-01-12T03:42:36.530Z,15.83
2019-01-12T03:45:09.475Z,13.83
2019-01-12T03:47:40.447Z,13.97
2019-01-12T03:50:12.181Z,13.00
2019-01-12T03:52:43.218Z,13.37
2019-01-12T03:55:14.147Z,12.03
2019-01-12T03:57:45.092Z,12.47
2019-01-12T04:00:21.054Z,12.23
2019-01-12T04:02:52.022Z,12.43
2019-01-12T04:05:22.949Z,11.27
2019-01-12T04:07:53.926Z,11.53
2019-01-12T04:10:24.864Z,11.10
2019-01-12T04:12:55.815Z,10.17
2019-01-12T04:15:26.733Z,10.27
2019-01-12T04:17:57.680Z,10.43
2019-01-12T04:20:28.602Z,10.70
2019-01-12T04:22:59.548Z,11.23
2019-01-12T04:25:33.925Z,11.27
2019-01-12T04:28:03.148Z,11.00
2019-01-12T04:30:34.067Z,11.40
2019-01-12T04:33:05.057Z,11.53
2019-01-12T04:35:35.985Z,11.73
2019-01-12T04:38:07.057Z,11.07
2019-01-12T04:40:38.031Z,10.30
2019-01-12T04:43:09.027Z,11.97
2019-01-12T04:45:39.973Z,10.13
2019-01-12T04:48:10.943Z,9.97
2019-01-12T04:50:41.875Z,10.00
2019-01-12T04:53:12.887Z,12.17
2019-01-12T04:55:43.871Z,10.03
2019-01-12T04:58:14.797Z,9.73
2019-01-12T05:00:45.713Z,10.67
2019-01-12T05:03:16.750Z,10.23
2019-01-12T05:05:47.681Z,10.23
2019-01-12T05:08:18.635Z,9.57
2019-01-12T05:10:49.563Z,10.53
2019-01-12T05:13:20.582Z,10.47
2019-01-12T05:15:51.498Z,11.20
2019-01-12T05:18:22.480Z,10.17
2019-01-12T05:20:53.426Z,10.57
2019-01-12T05:23:25.444Z,10.23
2019-01-12T05:25:56.384Z,10.63
2019-01-12T05:28:27.326Z,10.93
2019-01-12T05:30:58.239Z,10.10
2019-01-12T05:33:29.183Z,10.43
2019-01-12T05:36:00.150Z,10.27
2019-01-12T05:38:31.098Z,10.30
2019-01-12T05:41:02.033Z,9.13
2019-01-12T05:43:32.970Z,9.63
2019-01-12T05:46:03.874Z,9.30
2019-01-12T05:48:34.831Z,8.57
2019-01-12T05:51:05.739Z,8.53
2019-01-12T05:53:36.679Z,8.53
2019-01-12T05:56:07.650Z,8.60
2019-01-12T05:58:38.672Z,7.57
2019-01-12T06:01:09.638Z,8.50
2019-01-12T06:03:40.644Z,6.87
2019-01-12T06:06:11.560Z,6.90
2019-01-12T06:08:42.514Z,6.87
2019-01-12T06:11:13.471Z,6.87
2019-01-12T06:13:44.432Z,6.53
2019-01-12T06:16:15.353Z,6.50
2019-01-12T06:18:46.299Z,5.60
2019-01-12T06:21:17.230Z,7.97
2019-01-12T06:23:48.219Z,7.57
2019-01-12T06:26:19.110Z,6.77
2019-01-12T06:28:50.068Z,7.20
2019-01-12T06:31:21.078Z,6.10
2019-01-12T06:33:52.041Z,6.47
2019-01-12T06:36:23.018Z,6.77
2019-01-12T06:38:53.974Z,6.97
2019-01-12T06:41:24.910Z,7.17
2019-01-12T06:43:55.830Z,7.73
2019-01-12T06:46:26.819Z,6.60
2019-01-12T06:48:57.745Z,6.67
2019-01-12T06:51:28.711Z,6.97
2019-01-12T06:53:59.617Z,7.93
2019-01-12T06:56:30.613Z,7.07
2019-01-12T06:59:01.520Z,8.40
2019-01-12T07:01:32.502Z,8.30
2019-01-12T07:04:03.701Z,8.27
2019-01-12T07:06:34.710Z,7.93
2019-01-12T07:09:08.124Z,8.60
2019-01-12T07:11:39.109Z,8.83
2019-01-12T07:14:10.023Z,10.23
2019-01-12T07:16:41.106Z,9.97
2019-01-12T07:19:12.181Z,8.77
2019-01-12T07:21:43.167Z,8.90
2019-01-12T07:24:14.091Z,7.97
2019-01-12T07:26:45.114Z,8.17
2019-01-12T07:29:16.066Z,7.43
2019-01-12T07:31:47.017Z,8.20
2019-01-12T07:34:18.051Z,8.03
2019-01-12T07:36:49.185Z,8.83
2019-01-12T07:39:20.168Z,8.03
2019-01-12T07:41:51.209Z,8.47
2019-01-12T07:44:22.392Z,7.93
2019-01-12T07:46:53.310Z,8.60
2019-01-12T07:49:24.231Z,8.17
2019-01-12T07:51:55.422Z,8.23
2019-01-12T07:54:26.502Z,7.60
2019-01-12T07:56:57.483Z,8.73
2019-01-12T07:59:28.584Z,8.53
2019-01-12T08:02:00.775Z,7.73
2019-01-12T08:04:31.813Z,7.90
2019-01-12T08:07:02.918Z,8.50
2019-01-12T08:09:33.930Z,8.70
2019-01-12T08:12:04.991Z,8.70
2019-01-12T08:14:35.996Z,9.33
2019-01-12T08:17:06.979Z,9.83
2019-01-12T08:19:37.981Z,10.10
2019-01-12T08:22:08.945Z,9.87
2019-01-12T08:24:39.976Z,9.93
2019-01-12T08:27:10.942Z,10.33
2019-01-12T08:29:41.905Z,10.70
2019-01-12T08:32:12.849Z,10.20
2019-01-12T08:34:43.803Z,9.73
2019-01-12T08:37:14.759Z,9.67
2019-01-12T08:39:45.720Z,9.03
2019-01-12T08:42:16.646Z,9.47
2019-01-12T08:44:47.590Z,11.07
2019-01-12T08:47:18.544Z,10.03
2019-01-12T08:49:49.746Z,9.93
2019-01-12T08:52:20.737Z,9.50
2019-01-12T08:54:51.667Z,8.90
2019-01-12T08:57:23.140Z,9.00
2019-01-12T08:59:56.438Z,10.43
2019-01-12T09:02:27.454Z,8.77
2019-01-12T09:04:59.577Z,9.20
2019-01-12T09:07:30.689Z,8.20
2019-01-12T09:10:02.769Z,9.37
2019-01-12T09:12:33.770Z,8.73
2019-01-12T09:15:05.241Z,9.40
2019-01-12T09:17:36.277Z,9.77
2019-01-12T09:20:09.003Z,9.73
2019-01-12T09:22:39.955Z,8.90
2019-01-12T09:25:11.781Z,8.17
2019-01-12T09:27:42.791Z,7.90
2019-01-12T09:30:21.224Z,8.47
2019-01-12T09:32:52.482Z,9.17
2019-01-12T09:35:23.384Z,7.77
2019-01-12T09:37:54.328Z,7.30
2019-01-12T09:40:25.282Z,8.90
2019-01-12T09:42:56.221Z,8.87
2019-01-12T09:45:27.220Z,8.70
2019-01-12T09:47:58.202Z,7.10
2019-01-12T09:50:29.117Z,8.27
2019-01-12T09:53:00.087Z,9.60
2019-01-12T09:55:31.038Z,8.47
2019-01-12T09:58:02.058Z,9.00
2019-01-12T10:00:32.982Z,7.97
2019-01-12T10:03:03.953Z,9.07
2019-01-12T10:05:34.867Z,8.57
2019-01-12T10:08:05.973Z,8.97
2019-01-12T10:10:36.957Z,9.73
2019-01-12T10:13:07.909Z,9.50
2019-01-12T10:15:38.946Z,8.90
2019-01-12T10:18:09.950Z,9.23
2019-01-12T10:20:41.527Z,8.87
2019-01-12T10:23:12.554Z,8.57
2019-01-12T10:25:43.579Z,8.87
2019-01-12T10:28:14.557Z,9.23
2019-01-12T10:30:45.590Z,7.60
2019-01-12T10:33:16.621Z,8.00
2019-01-12T10:35:47.719Z,7.97
2019-01-12T10:38:18.911Z,7.73
2019-01-12T10:40:49.833Z,8.03
2019-01-12T10:43:20.963Z,8.53
2019-01-12T10:45:52.364Z,8.23
2019-01-12T10:48:23.356Z,7.77
2019-01-12T10:50:54.378Z,8.50
2019-01-12T10:53:28.207Z,8.10
2019-01-12T10:55:59.539Z,8.70
2019-01-12T10:58:30.663Z,8.70
2019-01-12T11:01:02.757Z,7.53
2019-01-12T11:03:33.743Z,8.40
2019-01-12T11:06:04.682Z,8.23
2019-01-12T11:08:35.748Z,8.37
2019-01-12T11:11:06.665Z,8.13
2019-01-12T11:13:37.612Z,8.27
2019-01-12T11:16:08.720Z,8.20
2019-01-12T11:18:39.720Z,8.47
2019-01-12T11:21:10.708Z,7.63
2019-01-12T11:23:41.696Z,7.80
2019-01-12T11:26:12.607Z,9.47
2019-01-12T11:28:44.687Z,9.03
2019-01-12T11:31:19.814Z,8.63
2019-01-12T11:33:48.285Z,8.67
2019-01-12T11:36:19.217Z,7.77
2019-01-12T11:38:50.167Z,8.23
2019-01-12T11:41:21.118Z,8.93
2019-01-12T11:43:52.087Z,9.27
2019-01-12T11:46:23.031Z,9.03
2019-01-12T11:48:53.962Z,8.33
2019-01-12T11:51:24.882Z,8.53
2019-01-12T11:53:56.724Z,8.83
2019-01-12T11:56:27.641Z,8.57
2019-01-12T11:58:58.617Z,8.87
2019-01-12T12:01:29.599Z,8.50
2019-01-12T12:04:02.883Z,7.83
2019-01-12T12:06:33.783Z,8.73
2019-01-12T12:09:07.252Z,8.07
2019-01-12T12:11:38.176Z,8.73
2019-01-12T12:14:09.170Z,8.17
2019-01-12T12:16:40.182Z,8.23
2019-01-12T12:19:11.133Z,8.27
2019-01-12T12:21:42.074Z,8.43
2019-01-12T12:24:13.067Z,7.90
2019-01-12T12:26:44.150Z,7.73
2019-01-12T12:29:15.127Z,7.87
2019-01-12T12:31:46.099Z,7.93
2019-01-12T12:34:17.128Z,7.77
2019-01-12T12:36:49.505Z,7.87
2019-01-12T12:39:20.922Z,7.90
2019-01-12T12:41:51.859Z,8.03
2019-01-12T12:44:23.040Z,7.90
2019-01-12T12:46:53.951Z,8.10
2019-01-12T12:49:24.883Z,7.17
2019-01-12T12:51:55.864Z,7.27
2019-01-12T12:54:26.870Z,8.47
2019-01-12T12:56:57.805Z,7.60
2019-01-12T12:59:28.773Z,8.60
2019-01-12T13:01:59.694Z,8.53
2019-01-12T13:04:31.436Z,9.17
2019-01-12T13:07:02.416Z,9.03
2019-01-12T13:09:33.384Z,9.27
2019-01-12T13:12:04.938Z,8.70
2019-01-12T13:14:36.050Z,8.47
2019-01-12T13:17:06.956Z,8.63
2019-01-12T13:19:37.905Z,9.03
2019-01-12T13:22:08.896Z,8.77
2019-01-12T13:24:39.910Z,8.97
2019-01-12T13:27:20.155Z,9.17
2019-01-12T13:29:51.110Z,9.50
2019-01-12T13:32:22.052Z,8.23
2019-01-12T13:34:53.054Z,8.73
2019-01-12T13:37:23.977Z,9.00
2019-01-12T13:39:54.961Z,8.97
2019-01-12T13:42:25.867Z,8.07
2019-01-12T13:44:56.876Z,8.70
2019-01-12T13:47:27.988Z,8.90
2019-01-12T13:49:58.944Z,9.23
2019-01-12T13:52:29.912Z,9.00
2019-01-12T13:55:02.227Z,8.80
2019-01-12T13:57:33.209Z,8.93
2019-01-12T14:00:05.934Z,9.17
2019-01-12T14:02:37.204Z,8.30
2019-01-12T14:05:08.204Z,9.23
2019-01-12T14:07:39.135Z,11.60
2019-01-12T14:10:11.452Z,10.90
2019-01-12T14:12:43.609Z,12.07
2019-01-12T14:15:15.038Z,12.50
2019-01-12T14:17:46.005Z,12.77
2019-01-12T14:20:29.308Z,13.33
2019-01-12T14:23:00.302Z,13.43
2019-01-12T14:25:31.246Z,12.37
2019-01-12T14:28:02.288Z,13.87
2019-01-12T14:30:33.347Z,13.20
2019-01-12T14:33:04.755Z,13.17
2019-01-12T14:35:37.557Z,12.60
2019-01-12T14:38:08.539Z,12.50
2019-01-12T14:40:39.532Z,12.87
2019-01-12T14:43:10.534Z,12.57
2019-01-12T14:45:41.477Z,11.73
2019-01-12T14:48:12.494Z,10.53
2019-01-12T14:50:43.434Z,10.77
2019-01-12T14:53:14.457Z,10.17
2019-01-12T14:55:45.386Z,9.93
2019-01-12T14:58:16.369Z,10.40
2019-01-12T15:00:47.304Z,9.83
2019-01-12T15:03:18.279Z,9.57
2019-01-12T15:05:49.194Z,9.87
2019-01-12T15:08:20.099Z,9.93
2019-01-12T15:10:51.071Z,10.07
2019-01-12T15:13:23.161Z,10.50
2019-01-12T15:15:54.272Z,9.80
2019-01-12T15:18:25.296Z,9.73
2019-01-12T15:20:56.217Z,10.63
2019-01-12T15:23:27.234Z,10.40
2019-01-12T15:25:58.181Z,10.33
2019-01-12T15:28:29.136Z,10.37
2019-01-12T15:31:00.063Z,10.20
2019-01-12T15:33:31.006Z,11.10
2019-01-12T15:36:02.483Z,11.07
2019-01-12T15:38:33.706Z,11.13
2019-01-12T15:41:04.646Z,10.67
2019-01-12T15:43:35.692Z,10.77
2019-01-12T15:46:06.600Z,10.50
2019-01-12T15:48:37.543Z,10.80
2019-01-12T15:51:08.520Z,11.27
2019-01-12T15:53:39.748Z,10.73
2019-01-12T15:56:10.712Z,11.23
2019-01-12T15:58:41.727Z,11.40
2019-01-12T16:01:12.748Z,10.53
2019-01-12T16:03:43.691Z,10.83
2019-01-12T16:06:14.629Z,10.70
2019-01-12T16:08:45.584Z,11.83
2019-01-12T16:11:16.516Z,11.40
2019-01-12T16:13:47.464Z,12.30
2019-01-12T16:16:18.412Z,10.77
2019-01-12T16:18:49.483Z,10.83
2019-01-12T16:21:20.470Z,10.53
2019-01-12T16:23:51.444Z,10.73
2019-01-12T16:26:22.365Z,9.77
2019-01-12T16:28:53.347Z,10.07
2019-01-12T16:31:24.355Z,10.43
2019-01-12T16:33:55.431Z,9.70
2019-01-12T16:36:26.430Z,9.50
2019-01-12T16:38:57.623Z,9.90
2019-01-12T16:41:28.599Z,9.20
2019-01-12T16:43:59.635Z,8.73
2019-01-12T16:46:30.910Z,9.43
2019-01-12T16:49:04.888Z,8.93
2019-01-12T16:51:37.244Z,8.80
2019-01-12T16:54:08.282Z,8.50
2019-01-12T16:56:43.619Z,7.87
2019-01-12T16:59:14.647Z,7.90
2019-01-12T17:01:51.701Z,7.73
2019-01-12T17:04:31.130Z,7.90
2019-01-12T17:07:02.293Z,7.83
2019-01-12T17:09:33.340Z,7.13
2019-01-12T17:12:05.873Z,8.03
2019-01-12T17:14:36.904Z,7.73
2019-01-12T17:17:10.687Z,7.67
2019-01-12T17:19:42.942Z,7.27
2019-01-12T17:22:15.213Z,6.90
2019-01-12T17:24:46.241Z,6.27
2019-01-12T17:27:17.322Z,7.33
2019-01-12T17:29:48.389Z,6.83
2019-01-12T17:32:19.371Z,6.80
2019-01-12T17:34:51.622Z,6.80
2019-01-12T17:37:22.598Z,6.70
2019-01-12T17:39:54.012Z,6.53
2019-01-12T17:42:24.957Z,7.30
2019-01-12T17:44:56.015Z,6.83
2019-01-12T17:47:27.028Z,7.23
2019-01-12T17:49:58.011Z,7.10
2019-01-12T17:52:28.937Z,6.97
2019-01-12T17:54:59.925Z,7.43
2019-01-12T17:57:30.941Z,7.93
2019-01-12T18:00:01.953Z,7.73
2019-01-12T18:02:34.865Z,7.70
2019-01-12T18:05:06.393Z,8.40
2019-01-12T18:07:37.390Z,7.90
2019-01-12T18:10:09.763Z,8.50
2019-01-12T18:12:40.756Z,8.97
2019-01-12T18:15:13.214Z,9.37
2019-01-12T18:17:44.130Z,9.17
2019-01-12T18:20:15.452Z,9.00
2019-01-12T18:22:46.451Z,8.23
2019-01-12T18:25:17.475Z,9.10
2019-01-12T18:27:48.740Z,8.63
2019-01-12T18:30:20.754Z,8.73
2019-01-12T18:32:51.732Z,9.37
2019-01-12T18:35:22.912Z,9.10
2019-01-12T18:37:53.993Z,9.73
2019-01-12T18:40:24.923Z,8.20
2019-01-12T18:42:55.875Z,7.67
2019-01-12T18:45:26.779Z,6.07
2019-01-12T18:47:57.831Z,6.90
2019-01-12T18:50:28.903Z,7.90
2019-01-12T18:52:59.947Z,7.07
2019-01-12T18:55:30.899Z,10.17
2019-01-12T18:58:01.945Z,27.97
2019-01-12T19:00:32.979Z,36.53
2019-01-12T19:03:04.027Z,52.63
2019-01-12T19:05:34.944Z,15.23
2019-01-12T19:08:05.953Z,17.70
2019-01-12T19:10:36.938Z,31.50
2019-01-12T19:13:08.208Z,42.50
2019-01-12T19:15:39.122Z,26.27
2019-01-12T19:18:10.128Z,26.83
2019-01-12T19:20:41.115Z,16.60
2019-01-12T19:23:12.187Z,17.63
2019-01-12T19:25:43.145Z,14.80
2019-01-12T19:28:14.166Z,8.87
2019-01-12T19:30:45.100Z,10.37
2019-01-12T19:33:16.025Z,8.30
2019-01-12T19:35:46.946Z,7.83
2019-01-12T19:38:17.864Z,7.03
2019-01-12T19:40:48.795Z,6.63
2019-01-12T19:43:19.712Z,6.33
2019-01-12T19:45:50.703Z,7.30
2019-01-12T19:48:24.303Z,11.03
2019-01-12T19:50:57.269Z,9.63
2019-01-12T19:53:28.351Z,6.40
2019-01-12T19:55:59.289Z,6.23
2019-01-12T19:58:30.206Z,6.27
2019-01-12T20:01:01.221Z,5.43
2019-01-12T20:03:32.262Z,6.53
2019-01-12T20:06:03.251Z,6.27
2019-01-12T20:08:34.279Z,6.00
2019-01-12T20:11:05.252Z,6.50
2019-01-12T20:13:37.244Z,6.57
2019-01-12T20:16:08.162Z,6.43
2019-01-12T20:18:40.658Z,6.80
2019-01-12T20:21:11.626Z,6.90
2019-01-12T20:23:42.611Z,6.30
2019-01-12T20:26:13.584Z,6.30
2019-01-12T20:28:44.587Z,5.70
2019-01-12T20:32:08.585Z,5.53
2019-01-12T20:35:07.700Z,6.00
2019-01-12T20:38:17.011Z,6.33
2019-01-12T20:41:39.062Z,5.93
2019-01-12T20:44:53.601Z,6.30
2019-01-12T20:47:36.215Z,6.10
2019-01-12T20:50:19.314Z,5.87
2019-01-12T20:53:30.345Z,6.50
2019-01-12T20:57:00.477Z,6.00
2019-01-12T20:59:54.213Z,6.37
2019-01-12T21:02:50.924Z,6.30
2019-01-12T21:05:53.310Z,6.93
2019-01-12T21:08:43.817Z,6.53
2019-01-12T21:11:50.904Z,7.50
2019-01-12T21:14:49.970Z,6.43
2019-01-12T21:17:21.171Z,6.47
2019-01-12T21:19:52.093Z,5.53
2019-01-12T21:22:23.001Z,5.40
2019-01-12T21:24:53.949Z,5.03
2019-01-12T21:27:24.917Z,5.27
2019-01-12T21:29:55.837Z,5.40
2019-01-12T21:32:26.798Z,5.70
2019-01-12T21:34:58.411Z,6.00
2019-01-12T21:37:29.458Z,5.83
2019-01-12T21:40:00.453Z,6.10
2019-01-12T21:42:31.439Z,6.37
2019-01-12T21:45:02.387Z,6.10
2019-01-12T21:47:34.379Z,7.23
2019-01-12T21:50:06.819Z,7.53
2019-01-12T21:52:37.797Z,7.87
2019-01-12T21:55:09.145Z,8.80
2019-01-12T21:57:40.610Z,8.93
2019-01-12T22:00:20.274Z,9.13
2019-01-12T22:02:51.314Z,9.80
2019-01-12T22:05:22.336Z,9.60
2019-01-12T22:07:53.244Z,10.37
2019-01-12T22:10:24.169Z,10.60
2019-01-12T22:12:55.169Z,11.30
2019-01-12T22:15:26.104Z,11.03
2019-01-12T22:17:57.070Z,12.43
2019-01-12T22:20:27.969Z,13.00
2019-01-12T22:22:58.913Z,13.80
2019-01-12T22:25:29.856Z,14.47
2019-01-12T22:28:00.871Z,14.90
2019-01-12T22:30:31.894Z,15.03
2019-01-12T22:33:02.810Z,15.83
2019-01-12T22:35:33.734Z,16.90
2019-01-12T22:38:04.670Z,17.17
2019-01-12T22:40:35.589Z,16.90
2019-01-12T22:43:06.594Z,16.93
2019-01-12T22:45:37.532Z,17.37
2019-01-12T22:48:08.450Z,17.03
2019-01-12T22:50:39.390Z,16.23
2019-01-12T22:53:10.338Z,17.37
2019-01-12T22:55:41.335Z,18.23
2019-01-12T22:58:12.353Z,17.27
2019-01-12T23:01:02.107Z,18.37
2019-01-12T23:03:33.339Z,17.80
2019-01-12T23:06:05.419Z,18.63
2019-01-12T23:08:36.391Z,17.57
2019-01-12T23:11:53.447Z,18.07
2019-01-12T23:14:40.373Z,18.33
2019-01-12T23:17:14.439Z,17.53
2019-01-12T23:19:45.408Z,17.43
2019-01-12T23:22:16.622Z,18.93
2019-01-12T23:24:47.600Z,18.13
2019-01-12T23:27:33.379Z,18.60
2019-01-12T23:30:05.990Z,16.93
2019-01-12T23:32:37.195Z,17.23
2019-01-12T23:35:08.754Z,17.93
2019-01-12T23:37:39.878Z,16.13
2019-01-12T23:40:10.891Z,17.73
2019-01-12T23:42:41.879Z,17.27
2019-01-12T23:45:12.869Z,16.90
2019-01-12T23:47:43.846Z,16.93
2019-01-12T23:50:14.814Z,16.73
2019-01-12T23:52:45.728Z,16.50
2019-01-12T23:55:16.648Z,17.53
2019-01-12T23:57:47.593Z,16.60
